sensor_id;sensor_type;location;lat;lon;timestamp;P1;durP1;ratioP1;P2;durP2;ratioP2
6862;SDS011;3470;48.738;9.616;2023-11-21T13:40:52;2.40;;;1.50;;
6862;SDS011;3470;48.738;9.616;2023-11-21T13:43:19;1.40;;;1.30;;
6862;SDS011;3470;48.738;9.616;2023-11-21T13:45:47;1.50;;;1.40;;
6862;SDS011;3470;48.738;9.616;2023-11-21T13:48:24;1.83;;;1.37;;
6862;SDS011;3470;48.738;9.616;2023-11-21T13:50:56;2.30;;;1.30;;
6862;SDS011;3470;48.738;9.616;2023-11-21T13:53:33;1.13;;;1.03;;
6862;SDS011;3470;48.738;9.616;2023-11-21T13:56:02;2.03;;;1.80;;
6862;SDS011;3470;48.738;9.616;2023-11-21T13:58:28;1.83;;;1.00;;
6862;SDS011;3470;48.738;9.616;2023-11-21T14:01:12;1.43;;;1.33;;
6862;SDS011;3470;48.738;9.616;2023-11-21T14:04:00;1.63;;;1.50;;
6862;SDS011;3470;48.738;9.616;2023-11-21T14:06:53;1.80;;;1.60;;
6862;SDS011;3470;48.738;9.616;2023-11-21T14:09:23;3.10;;;1.60;;
6862;SDS011;3470;48.738;9.616;2023-11-21T17:56:35;20.30;;;13.83;;
6862;SDS011;3470;48.738;9.616;2023-11-21T17:59:01;22.60;;;14.47;;
6862;SDS011;3470;48.738;9.616;2023-11-21T18:01:27;22.33;;;14.87;;
6862;SDS011;3470;48.738;9.616;2023-11-21T18:03:58;19.57;;;12.63;;
6862;SDS011;3470;48.738;9.616;2023-11-21T18:06:24;21.10;;;12.50;;
6862;SDS011;3470;48.738;9.616;2023-11-21T18:08:50;18.77;;;12.23;;
6862;SDS011;3470;48.738;9.616;2023-11-21T18:11:15;20.00;;;13.07;;
6862;SDS011;3470;48.738;9.616;2023-11-21T18:13:41;24.50;;;15.60;;
6862;SDS011;3470;48.738;9.616;2023-11-21T18:16:07;29.83;;;20.60;;
6862;SDS011;3470;48.738;9.616;2023-11-21T18:18:32;21.07;;;14.03;;
6862;SDS011;3470;48.738;9.616;2023-11-21T18:20:58;28.03;;;17.90;;
6862;SDS011;3470;48.738;9.616;2023-11-21T18:23:25;32.90;;;22.07;;
6862;SDS011;3470;48.738;9.616;2023-11-21T18:25:51;33.07;;;20.07;;
6862;SDS011;3470;48.738;9.616;2023-11-21T18:28:16;25.37;;;16.43;;
6862;SDS011;3470;48.738;9.616;2023-11-21T18:30:42;28.40;;;17.47;;
6862;SDS011;3470;48.738;9.616;2023-11-21T18:33:08;21.07;;;15.40;;
6862;SDS011;3470;48.738;9.616;2023-11-21T18:35:35;28.17;;;16.77;;
6862;SDS011;3470;48.738;9.616;2023-11-21T18:38:00;22.90;;;15.20;;
6862;SDS011;3470;48.738;9.616;2023-11-21T18:40:27;23.90;;;14.90;;
6862;SDS011;3470;48.738;9.616;2023-11-21T18:42:54;22.87;;;13.77;;
6862;SDS011;3470;48.738;9.616;2023-11-21T18:45:20;21.70;;;13.70;;
6862;SDS011;3470;48.738;9.616;2023-11-21T18:47:46;23.27;;;14.20;;
6862;SDS011;3470;48.738;9.616;2023-11-21T18:50:13;21.27;;;14.53;;
6862;SDS011;3470;48.738;9.616;2023-11-21T18:52:43;24.20;;;14.40;;
6862;SDS011;3470;48.738;9.616;2023-11-21T18:55:09;23.87;;;14.40;;
6862;SDS011;3470;48.738;9.616;2023-11-21T18:57:35;25.33;;;14.83;;
6862;SDS011;3470;48.738;9.616;2023-11-21T19:00:00;22.50;;;14.50;;
6862;SDS011;3470;48.738;9.616;2023-11-21T19:02:26;20.70;;;13.87;;
6862;SDS011;3470;48.738;9.616;2023-11-21T19:04:52;21.03;;;13.40;;
6862;SDS011;3470;48.738;9.616;2023-11-21T19:07:17;20.93;;;13.20;;
6862;SDS011;3470;48.738;9.616;2023-11-21T19:09:44;23.40;;;14.37;;
6862;SDS011;3470;48.738;9.616;2023-11-21T19:12:09;66.80;;;42.17;;
6862;SDS011;3470;48.738;9.616;2023-11-21T19:14:38;75.43;;;51.13;;
6862;SDS011;3470;48.738;9.616;2023-11-21T19:17:04;30.50;;;19.50;;
6862;SDS011;3470;48.738;9.616;2023-11-21T19:19:29;26.33;;;18.43;;
6862;SDS011;3470;48.738;9.616;2023-11-21T19:21:55;25.87;;;16.77;;
6862;SDS011;3470;48.738;9.616;2023-11-21T19:24:21;27.90;;;18.83;;
6862;SDS011;3470;48.738;9.616;2023-11-21T19:26:46;24.37;;;17.57;;
6862;SDS011;3470;48.738;9.616;2023-11-21T19:29:13;24.27;;;17.37;;
6862;SDS011;3470;48.738;9.616;2023-11-21T19:31:38;22.23;;;14.97;;
6862;SDS011;3470;48.738;9.616;2023-11-21T19:34:04;24.57;;;14.17;;
6862;SDS011;3470;48.738;9.616;2023-11-21T19:36:29;20.80;;;14.43;;
6862;SDS011;3470;48.738;9.616;2023-11-21T19:38:55;23.23;;;14.27;;
6862;SDS011;3470;48.738;9.616;2023-11-21T19:41:21;23.30;;;15.27;;
6862;SDS011;3470;48.738;9.616;2023-11-21T19:43:47;23.37;;;17.03;;
6862;SDS011;3470;48.738;9.616;2023-11-21T19:46:14;30.70;;;18.63;;
6862;SDS011;3470;48.738;9.616;2023-11-21T19:48:40;27.57;;;16.93;;
6862;SDS011;3470;48.738;9.616;2023-11-21T19:51:07;26.60;;;18.37;;
6862;SDS011;3470;48.738;9.616;2023-11-21T19:53:33;27.67;;;19.10;;
6862;SDS011;3470;48.738;9.616;2023-11-21T19:56:02;19.63;;;14.97;;
6862;SDS011;3470;48.738;9.616;2023-11-21T19:58:31;23.07;;;15.47;;
6862;SDS011;3470;48.738;9.616;2023-11-21T20:00:57;20.40;;;13.77;;
6862;SDS011;3470;48.738;9.616;2023-11-21T20:03:22;21.80;;;14.00;;
6862;SDS011;3470;48.738;9.616;2023-11-21T20:05:48;25.00;;;13.80;;
6862;SDS011;3470;48.738;9.616;2023-11-21T20:08:14;20.60;;;13.63;;
6862;SDS011;3470;48.738;9.616;2023-11-21T20:10:40;22.73;;;13.40;;
6862;SDS011;3470;48.738;9.616;2023-11-21T20:13:06;21.20;;;13.03;;
6862;SDS011;3470;48.738;9.616;2023-11-21T20:15:32;22.23;;;12.57;;
6862;SDS011;3470;48.738;9.616;2023-11-21T20:18:01;20.07;;;12.83;;
6862;SDS011;3470;48.738;9.616;2023-11-21T20:20:27;17.53;;;11.53;;
6862;SDS011;3470;48.738;9.616;2023-11-21T20:22:52;25.77;;;14.10;;
6862;SDS011;3470;48.738;9.616;2023-11-21T20:25:20;20.03;;;11.87;;
6862;SDS011;3470;48.738;9.616;2023-11-21T20:27:46;20.83;;;13.83;;
6862;SDS011;3470;48.738;9.616;2023-11-21T20:30:12;17.53;;;12.73;;
6862;SDS011;3470;48.738;9.616;2023-11-21T20:32:38;18.93;;;12.20;;
6862;SDS011;3470;48.738;9.616;2023-11-21T20:35:04;20.07;;;12.13;;
6862;SDS011;3470;48.738;9.616;2023-11-21T20:37:30;22.87;;;14.63;;
6862;SDS011;3470;48.738;9.616;2023-11-21T20:40:00;24.77;;;19.63;;
6862;SDS011;3470;48.738;9.616;2023-11-21T20:42:28;24.53;;;17.47;;
6862;SDS011;3470;48.738;9.616;2023-11-21T20:44:55;30.00;;;24.20;;
6862;SDS011;3470;48.738;9.616;2023-11-21T20:47:21;27.67;;;19.63;;
6862;SDS011;3470;48.738;9.616;2023-11-21T20:49:47;29.23;;;26.17;;
6862;SDS011;3470;48.738;9.616;2023-11-21T20:52:15;26.33;;;22.53;;
6862;SDS011;3470;48.738;9.616;2023-11-21T20:54:40;32.63;;;29.37;;
6862;SDS011;3470;48.738;9.616;2023-11-21T20:57:06;24.67;;;19.20;;
6862;SDS011;3470;48.738;9.616;2023-11-21T20:59:34;30.43;;;27.30;;
6862;SDS011;3470;48.738;9.616;2023-11-21T21:02:00;33.50;;;30.43;;
6862;SDS011;3470;48.738;9.616;2023-11-21T21:04:26;19.57;;;16.47;;
6862;SDS011;3470;48.738;9.616;2023-11-21T21:06:52;21.37;;;14.10;;
6862;SDS011;3470;48.738;9.616;2023-11-21T21:09:17;26.80;;;23.13;;
6862;SDS011;3470;48.738;9.616;2023-11-21T21:11:43;18.67;;;14.40;;
6862;SDS011;3470;48.738;9.616;2023-11-21T21:14:09;19.60;;;15.97;;
6862;SDS011;3470;48.738;9.616;2023-11-21T21:16:38;22.93;;;15.47;;
6862;SDS011;3470;48.738;9.616;2023-11-21T21:19:07;18.70;;;13.53;;
6862;SDS011;3470;48.738;9.616;2023-11-21T21:21:33;20.27;;;13.67;;
6862;SDS011;3470;48.738;9.616;2023-11-21T21:23:58;25.70;;;14.90;;
6862;SDS011;3470;48.738;9.616;2023-11-21T21:26:24;18.67;;;13.67;;
6862;SDS011;3470;48.738;9.616;2023-11-21T21:28:52;21.60;;;12.60;;
6862;SDS011;3470;48.738;9.616;2023-11-21T21:31:18;20.40;;;12.53;;
6862;SDS011;3470;48.738;9.616;2023-11-21T21:33:43;19.43;;;12.33;;
6862;SDS011;3470;48.738;9.616;2023-11-21T21:36:09;17.97;;;12.70;;
6862;SDS011;3470;48.738;9.616;2023-11-21T21:38:36;18.53;;;12.93;;
6862;SDS011;3470;48.738;9.616;2023-11-21T21:41:04;16.20;;;11.13;;
6862;SDS011;3470;48.738;9.616;2023-11-21T21:43:35;20.30;;;12.77;;
6862;SDS011;3470;48.738;9.616;2023-11-21T21:46:01;19.33;;;11.27;;
6862;SDS011;3470;48.738;9.616;2023-11-21T21:48:27;17.93;;;11.33;;
6862;SDS011;3470;48.738;9.616;2023-11-21T21:50:53;18.17;;;11.73;;
6862;SDS011;3470;48.738;9.616;2023-11-21T21:53:19;17.77;;;11.87;;
6862;SDS011;3470;48.738;9.616;2023-11-21T21:55:45;18.63;;;11.57;;
6862;SDS011;3470;48.738;9.616;2023-11-21T21:58:10;15.03;;;11.27;;
6862;SDS011;3470;48.738;9.616;2023-11-21T22:00:36;18.90;;;11.63;;
6862;SDS011;3470;48.738;9.616;2023-11-21T22:03:04;21.17;;;12.87;;
6862;SDS011;3470;48.738;9.616;2023-11-21T22:05:31;16.83;;;11.50;;
6862;SDS011;3470;48.738;9.616;2023-11-21T22:07:57;19.10;;;12.13;;
6862;SDS011;3470;48.738;9.616;2023-11-21T22:10:23;19.27;;;11.57;;
6862;SDS011;3470;48.738;9.616;2023-11-21T22:12:48;22.40;;;12.77;;
6862;SDS011;3470;48.738;9.616;2023-11-21T22:15:14;17.50;;;11.40;;
6862;SDS011;3470;48.738;9.616;2023-11-21T22:17:39;15.90;;;11.37;;
6862;SDS011;3470;48.738;9.616;2023-11-21T22:20:05;25.70;;;12.53;;
6862;SDS011;3470;48.738;9.616;2023-11-21T22:22:31;18.93;;;11.80;;
6862;SDS011;3470;48.738;9.616;2023-11-21T22:24:56;16.43;;;11.87;;
6862;SDS011;3470;48.738;9.616;2023-11-21T22:27:22;16.63;;;12.20;;
6862;SDS011;3470;48.738;9.616;2023-11-21T22:29:48;20.90;;;11.60;;
6862;SDS011;3470;48.738;9.616;2023-11-21T22:32:14;18.97;;;11.60;;
6862;SDS011;3470;48.738;9.616;2023-11-21T22:34:40;18.50;;;11.50;;
6862;SDS011;3470;48.738;9.616;2023-11-21T22:37:06;18.40;;;10.00;;
6862;SDS011;3470;48.738;9.616;2023-11-21T22:39:31;18.27;;;11.80;;
6862;SDS011;3470;48.738;9.616;2023-11-21T22:41:57;14.30;;;10.57;;
6862;SDS011;3470;48.738;9.616;2023-11-21T22:44:23;16.30;;;10.50;;
6862;SDS011;3470;48.738;9.616;2023-11-21T22:46:49;20.60;;;12.07;;
6862;SDS011;3470;48.738;9.616;2023-11-21T22:49:15;16.70;;;12.10;;
6862;SDS011;3470;48.738;9.616;2023-11-21T22:51:41;14.30;;;10.60;;
6862;SDS011;3470;48.738;9.616;2023-11-21T22:54:07;14.17;;;10.53;;
6862;SDS011;3470;48.738;9.616;2023-11-21T22:56:33;14.20;;;10.13;;
6862;SDS011;3470;48.738;9.616;2023-11-21T22:58:59;12.97;;;9.40;;
6862;SDS011;3470;48.738;9.616;2023-11-21T23:01:24;13.13;;;7.80;;
6862;SDS011;3470;48.738;9.616;2023-11-21T23:03:50;13.60;;;8.20;;
6862;SDS011;3470;48.738;9.616;2023-11-21T23:06:19;12.20;;;7.83;;
6862;SDS011;3470;48.738;9.616;2023-11-21T23:08:46;9.30;;;6.87;;
6862;SDS011;3470;48.738;9.616;2023-11-21T23:11:12;8.53;;;6.33;;
6862;SDS011;3470;48.738;9.616;2023-11-21T23:13:41;9.33;;;7.20;;
6862;SDS011;3470;48.738;9.616;2023-11-21T23:16:07;10.57;;;6.50;;
6862;SDS011;3470;48.738;9.616;2023-11-21T23:18:34;7.20;;;6.50;;
6862;SDS011;3470;48.738;9.616;2023-11-21T23:21:00;8.07;;;6.20;;
6862;SDS011;3470;48.738;9.616;2023-11-21T23:23:26;8.50;;;7.37;;
6862;SDS011;3470;48.738;9.616;2023-11-21T23:25:55;11.23;;;6.90;;
6862;SDS011;3470;48.738;9.616;2023-11-21T23:28:22;8.87;;;6.83;;
6862;SDS011;3470;48.738;9.616;2023-11-21T23:30:48;10.10;;;7.13;;
6862;SDS011;3470;48.738;9.616;2023-11-21T23:33:15;10.43;;;7.37;;
6862;SDS011;3470;48.738;9.616;2023-11-21T23:35:46;12.47;;;8.73;;
6862;SDS011;3470;48.738;9.616;2023-11-21T23:38:12;11.43;;;8.87;;
6862;SDS011;3470;48.738;9.616;2023-11-21T23:40:38;11.17;;;8.60;;
6862;SDS011;3470;48.738;9.616;2023-11-21T23:43:03;11.83;;;8.43;;
6862;SDS011;3470;48.738;9.616;2023-11-21T23:45:29;10.03;;;7.40;;
6862;SDS011;3470;48.738;9.616;2023-11-21T23:47:55;7.63;;;6.40;;
6862;SDS011;3470;48.738;9.616;2023-11-21T23:50:21;8.20;;;7.00;;
6862;SDS011;3470;48.738;9.616;2023-11-21T23:52:49;12.00;;;7.27;;
6862;SDS011;3470;48.738;9.616;2023-11-21T23:55:15;9.27;;;7.50;;
6862;SDS011;3470;48.738;9.616;2023-11-21T23:57:40;7.90;;;6.60;;
